Time;durP1;ratioP1;P1;durP2;ratioP2;P2;SDS_P1;SDS_P2;PMS_P1;PMS_P2;Temp;Humidity;BMP_temperature;BMP_pressure;BME280_temperature;BME280_humidity;BME280_pressure;Samples;Min_cycle;Max_cycle;Signal;HPM_P1;HPM_P2
2022/11/26 00:01:16;;;;;;;11.80;4.85;;;7.20;99.90;;;;;;5092795;28;20059;-57
2022/11/26 00:03:42;;;;;;;13.70;6.13;;;7.20;99.90;;;;;;5076278;28;20020;-56
2022/11/26 00:06:30;;;;;;;10.75;4.75;;;7.20;99.90;;;;;;5091461;28;20052;-56
2022/11/26 00:08:57;;;;;;;10.27;5.05;;;7.20;99.90;;;;;;5099293;28;20480;-56
2022/11/26 00:11:22;;;;;;;9.23;4.97;;;7.20;99.90;;;;;;5094585;28;20031;-56
2022/11/26 00:13:48;;;;;;;8.55;4.57;;;7.20;99.90;;;;;;5090831;28;20039;-57
2022/11/26 00:16:14;;;;;;;9.95;4.43;;;7.20;99.90;;;;;;5096887;28;20030;-56
2022/11/26 00:18:41;;;;;;;11.05;5.18;;;7.20;99.90;;;;;;5096698;28;20058;-57
2022/11/26 00:21:17;;;;;;;11.85;5.05;;;7.20;99.90;;;;;;5091383;28;20051;-53
2022/11/26 00:23:43;;;;;;;10.57;5.40;;;7.20;99.90;;;;;;5095668;28;20529;-54
2022/11/26 00:26:14;;;;;;;14.27;6.32;;;7.10;99.90;;;;;;5096718;28;20023;-55
2022/11/26 00:28:47;;;;;;;14.40;6.57;;;7.10;99.90;;;;;;5090645;28;20038;-57
2022/11/26 00:31:14;;;;;;;11.73;5.88;;;7.10;99.90;;;;;;5099470;27;20110;-56
2022/11/26 00:33:40;;;;;;;12.60;5.47;;;7.10;99.90;;;;;;5090451;28;20060;-55
2022/11/26 00:36:15;;;;;;;17.10;5.72;;;7.00;99.90;;;;;;5090447;28;20032;-56
2022/11/26 00:38:41;;;;;;;10.00;5.18;;;7.00;99.90;;;;;;5092855;28;20571;-57
2022/11/26 00:41:16;;;;;;;10.95;5.28;;;7.00;99.90;;;;;;5093333;27;20107;-56
2022/11/26 00:43:42;;;;;;;9.68;5.53;;;7.00;99.90;;;;;;5095789;28;20103;-55
2022/11/26 00:46:20;;;;;;;9.65;4.82;;;7.00;99.90;;;;;;5093867;28;20085;-56
2022/11/26 00:48:45;;;;;;;13.90;5.68;;;7.00;99.90;;;;;;5093450;28;20538;-57
2022/11/26 00:51:18;;;;;;;10.38;4.63;;;7.00;99.90;;;;;;5092374;28;20028;-54
2022/11/26 00:53:44;;;;;;;10.63;5.30;;;6.90;99.90;;;;;;5095525;28;20084;-55
2022/11/26 00:56:17;;;;;;;11.20;6.25;;;6.90;99.90;;;;;;5092610;28;20032;-56
2022/11/26 00:58:42;;;;;;;13.55;5.80;;;6.90;99.90;;;;;;5098489;28;20385;-55
2022/11/26 01:01:11;;;;;;;10.30;5.15;;;6.90;99.90;;;;;;5099409;28;20543;-57
2022/11/26 01:03:41;;;;;;;13.57;6.15;;;6.80;99.90;;;;;;5099130;28;20021;-56
2022/11/26 01:06:19;;;;;;;12.55;5.70;;;6.80;99.90;;;;;;5096270;28;20016;-57
2022/11/26 01:08:45;;;;;;;16.23;7.00;;;6.80;99.90;;;;;;5094985;28;20020;-56
2022/11/26 01:11:14;;;;;;;13.32;6.30;;;6.70;99.90;;;;;;5095641;28;20032;-56
2022/11/26 01:13:42;;;;;;;14.90;6.88;;;6.70;99.90;;;;;;5092120;28;20032;-53
2022/11/26 01:16:29;;;;;;;13.30;5.80;;;6.70;99.90;;;;;;5089161;28;20019;-57
2022/11/26 01:18:57;;;;;;;13.60;6.13;;;6.70;99.90;;;;;;5093105;28;20031;-54
2022/11/26 01:21:24;;;;;;;12.95;6.40;;;6.60;99.90;;;;;;5089349;28;20027;-55
2022/11/26 01:23:50;;;;;;;18.65;6.35;;;6.60;99.90;;;;;;5092084;28;20016;-56
2022/11/26 01:26:19;;;;;;;14.65;7.38;;;6.60;99.90;;;;;;5095262;28;20102;-57
2022/11/26 01:28:44;;;;;;;18.73;7.28;;;6.60;99.90;;;;;;5088252;28;20500;-57
2022/11/26 01:31:15;;;;;;;16.95;7.00;;;6.50;99.90;;;;;;5102758;27;20043;-54
2022/11/26 01:33:41;;;;;;;18.30;7.55;;;6.50;99.90;;;;;;5089070;28;20054;-55
2022/11/26 01:36:30;;;;;;;20.63;6.15;;;6.40;99.90;;;;;;5095794;28;20031;-57
2022/11/26 01:39:18;;;;;;;14.18;6.82;;;6.40;99.90;;;;;;5094465;28;20020;-53
2022/11/26 01:42:06;;;;;;;13.10;7.15;;;6.30;99.90;;;;;;5091513;28;20060;-56
2022/11/26 01:44:34;;;;;;;14.10;7.57;;;6.30;99.90;;;;;;5079399;28;20028;-56
2022/11/26 01:47:00;;;;;;;20.80;7.38;;;6.20;99.90;;;;;;5089379;28;20035;-55
2022/11/26 01:49:32;;;;;;;12.82;7.35;;;6.20;99.90;;;;;;5092025;28;20028;-56
2022/11/26 01:52:12;;;;;;;20.55;9.15;;;6.30;99.90;;;;;;5096813;28;20028;-54
2022/11/26 01:54:41;;;;;;;20.65;8.77;;;6.30;99.90;;;;;;5096586;28;20020;-56
2022/11/26 01:57:15;;;;;;;27.23;10.30;;;6.20;99.90;;;;;;5088055;28;20027;-53
2022/11/26 01:59:43;;;;;;;22.58;8.63;;;6.20;99.90;;;;;;5090843;28;20032;-56
2022/11/26 02:02:08;;;;;;;17.10;8.82;;;6.10;99.90;;;;;;5092905;28;20008;-55
2022/11/26 02:04:44;;;;;;;16.27;8.05;;;6.10;99.90;;;;;;5094270;28;20045;-56
2022/11/26 02:07:09;;;;;;;16.70;7.45;;;6.10;99.90;;;;;;5093487;28;20488;-56
2022/11/26 02:09:35;;;;;;;14.93;7.10;;;6.10;99.90;;;;;;5077592;28;20055;-55
2022/11/26 02:12:01;;;;;;;17.27;7.13;;;6.10;99.90;;;;;;5093858;28;20023;-56
2022/11/26 02:14:37;;;;;;;12.32;6.85;;;6.10;99.90;;;;;;5101094;28;20027;-54
2022/11/26 02:17:30;;;;;;;13.18;7.32;;;6.10;99.90;;;;;;5120430;28;20507;-56
2022/11/26 02:20:14;;;;;;;18.23;7.93;;;6.10;99.90;;;;;;5091137;28;20021;-55
2022/11/26 02:22:49;;;;;;;14.23;7.75;;;6.10;99.90;;;;;;5087725;28;20027;-54
2022/11/26 02:25:41;;;;;;;15.98;7.80;;;6.10;99.90;;;;;;5090936;28;20021;-55
2022/11/26 02:28:21;;;;;;;12.57;6.53;;;6.10;99.90;;;;;;5094373;28;20024;-55
2022/11/26 02:31:27;;;;;;;12.25;6.47;;;6.10;99.90;;;;;;5093978;28;20425;-56
2022/11/26 02:34:19;;;;;;;15.20;6.35;;;6.10;99.90;;;;;;5044381;28;1080482;-55
2022/11/26 02:36:57;;;;;;;15.15;6.93;;;6.10;99.90;;;;;;5096727;28;20528;-55
2022/11/26 02:39:25;;;;;;;15.40;7.47;;;6.10;99.90;;;;;;5095876;28;20051;-56
2022/11/26 02:41:53;;;;;;;13.77;7.53;;;6.00;99.90;;;;;;5097746;28;20542;-57
2022/11/26 02:44:22;;;;;;;14.40;7.22;;;6.00;99.90;;;;;;5095389;28;20028;-52
2022/11/26 02:46:53;;;;;;;10.03;6.80;;;6.00;99.90;;;;;;5092534;28;20035;-55
2022/11/26 02:49:21;;;;;;;10.95;6.95;;;6.00;99.90;;;;;;5095246;28;20096;-55
2022/11/26 02:51:51;;;;;;;10.65;5.78;;;6.00;99.90;;;;;;5073892;28;20107;-57
2022/11/26 02:54:18;;;;;;;12.13;6.70;;;6.00;99.90;;;;;;5113969;27;20483;-56
2022/11/26 02:56:43;;;;;;;15.10;6.20;;;6.00;99.90;;;;;;5097885;28;20583;-54
2022/11/26 02:59:09;;;;;;;19.60;8.38;;;6.00;99.90;;;;;;5092144;28;20032;-56
2022/11/26 03:01:44;;;;;;;17.83;8.30;;;6.00;99.90;;;;;;5103296;28;20031;-53
2022/11/26 03:04:22;;;;;;;16.90;8.15;;;6.00;99.90;;;;;;5098054;28;20020;-56
2022/11/26 03:06:49;;;;;;;15.88;8.73;;;6.00;99.90;;;;;;5095876;28;20024;-53
2022/11/26 03:09:16;;;;;;;17.25;8.85;;;5.90;99.90;;;;;;5098940;28;20020;-54
2022/11/26 03:11:42;;;;;;;16.80;7.82;;;6.00;99.90;;;;;;5094698;27;20024;-54
2022/11/26 03:14:08;;;;;;;17.67;8.63;;;5.90;99.90;;;;;;5094740;28;20938;-57
2022/11/26 03:16:33;;;;;;;16.50;7.95;;;6.00;99.90;;;;;;5099194;28;20024;-54
2022/11/26 03:18:59;;;;;;;16.65;7.38;;;6.00;99.90;;;;;;5096774;28;20040;-56
2022/11/26 03:21:24;;;;;;;11.75;6.75;;;6.00;99.90;;;;;;5094384;28;20036;-54
2022/11/26 03:23:50;;;;;;;14.13;6.88;;;6.00;99.90;;;;;;5094963;28;20049;-53
2022/11/26 03:26:15;;;;;;;19.23;8.18;;;6.00;99.90;;;;;;5095118;28;20591;-56
2022/11/26 03:28:41;;;;;;;16.60;7.88;;;6.00;99.90;;;;;;5092461;28;20024;-54
2022/11/26 03:31:07;;;;;;;17.83;9.18;;;6.00;99.90;;;;;;5091549;28;20504;-55
2022/11/26 03:33:32;;;;;;;14.20;7.65;;;6.00;99.90;;;;;;5096670;28;20493;-56
2022/11/26 03:35:58;;;;;;;15.13;8.13;;;6.00;99.90;;;;;;5093297;28;20040;-57
2022/11/26 03:38:23;;;;;;;15.82;7.30;;;6.00;99.90;;;;;;5093807;28;20028;-56
2022/11/26 03:40:56;;;;;;;12.90;7.82;;;6.00;99.90;;;;;;5094381;28;20020;-56
2022/11/26 03:43:22;;;;;;;14.23;6.53;;;6.00;99.90;;;;;;5097525;28;20078;-55
2022/11/26 03:45:47;;;;;;;16.38;7.85;;;6.00;99.90;;;;;;5076629;28;20016;-51
2022/11/26 03:48:13;;;;;;;21.88;9.25;;;6.00;99.90;;;;;;5099789;28;20034;-56
2022/11/26 03:50:39;;;;;;;18.15;9.43;;;5.90;99.90;;;;;;5095793;28;20039;-55
2022/11/26 03:53:04;;;;;;;23.85;10.10;;;5.80;99.90;;;;;;5097291;28;20554;-53
2022/11/26 03:55:29;;;;;;;24.10;10.43;;;5.80;99.90;;;;;;5093939;28;20393;-55
2022/11/26 03:57:55;;;;;;;19.40;10.10;;;5.70;99.90;;;;;;5091433;28;20103;-56
2022/11/26 04:00:21;;;;;;;23.85;10.48;;;5.60;99.90;;;;;;5096527;28;20036;-55
2022/11/26 04:02:46;;;;;;;22.33;10.30;;;5.60;99.90;;;;;;5096161;28;20019;-56
2022/11/26 04:05:12;;;;;;;22.95;11.23;;;5.50;99.90;;;;;;5091005;28;20020;-52
2022/11/26 04:07:37;;;;;;;22.98;11.35;;;5.50;99.90;;;;;;5090821;28;20412;-54
2022/11/26 04:10:03;;;;;;;24.13;10.73;;;5.50;99.90;;;;;;5091114;28;20040;-56
2022/11/26 04:12:29;;;;;;;22.83;11.02;;;5.40;99.90;;;;;;5077952;28;20035;-56
2022/11/26 04:14:54;;;;;;;23.73;10.75;;;5.40;99.90;;;;;;5090878;28;20027;-54
2022/11/26 04:17:20;;;;;;;16.83;9.20;;;5.40;99.90;;;;;;5096007;28;20512;-55
2022/11/26 04:19:46;;;;;;;18.35;9.88;;;5.40;99.90;;;;;;5093495;28;20101;-54
2022/11/26 04:22:11;;;;;;;19.85;9.27;;;5.40;99.90;;;;;;5091723;28;20489;-55
2022/11/26 04:24:37;;;;;;;20.02;9.73;;;5.40;99.90;;;;;;5094091;28;20028;-55
2022/11/26 04:27:02;;;;;;;21.02;9.50;;;5.40;99.90;;;;;;5091234;28;20039;-56
2022/11/26 04:29:28;;;;;;;17.67;8.68;;;5.40;99.90;;;;;;5090300;28;20024;-54
2022/11/26 04:31:53;;;;;;;14.40;8.32;;;5.40;99.90;;;;;;5090515;28;20060;-56
2022/11/26 04:34:19;;;;;;;18.75;10.38;;;5.40;99.90;;;;;;5095597;28;20028;-56
2022/11/26 04:36:44;;;;;;;23.08;10.93;;;5.40;99.90;;;;;;5091184;28;20118;-56
2022/11/26 04:39:11;;;;;;;22.80;11.55;;;5.30;99.90;;;;;;5092852;28;20093;-56
2022/11/26 04:41:37;;;;;;;18.75;10.77;;;5.30;99.90;;;;;;5095713;28;20065;-54
2022/11/26 04:44:03;;;;;;;22.30;10.50;;;5.20;99.90;;;;;;5092884;28;20020;-54
2022/11/26 04:46:28;;;;;;;26.67;11.68;;;5.20;99.90;;;;;;5072011;28;20496;-56
2022/11/26 04:48:54;;;;;;;28.73;11.02;;;5.20;99.90;;;;;;5095799;28;20023;-54
2022/11/26 04:51:19;;;;;;;27.52;11.77;;;5.10;99.90;;;;;;5093898;28;20027;-56
2022/11/26 04:53:45;;;;;;;22.83;10.43;;;5.10;99.90;;;;;;5090184;28;20020;-56
2022/11/26 04:56:11;;;;;;;26.63;11.30;;;5.10;99.90;;;;;;5090491;28;20032;-56
2022/11/26 04:58:36;;;;;;;23.63;11.75;;;5.00;99.90;;;;;;5092534;28;20042;-56
2022/11/26 05:01:02;;;;;;;20.35;11.18;;;5.10;99.90;;;;;;5095201;28;20035;-55
2022/11/26 05:03:27;;;;;;;23.58;11.73;;;5.10;99.90;;;;;;5099196;28;20031;-55
2022/11/26 05:05:53;;;;;;;29.33;10.95;;;5.00;99.90;;;;;;5092657;28;20016;-53
2022/11/26 05:08:18;;;;;;;24.38;11.85;;;5.00;99.90;;;;;;5095069;27;20030;-56
2022/11/26 05:10:44;;;;;;;22.42;11.48;;;5.00;99.90;;;;;;5095053;28;20040;-56
2022/11/26 05:13:09;;;;;;;29.73;12.45;;;5.00;99.90;;;;;;5089374;28;20085;-55
2022/11/26 05:15:35;;;;;;;24.30;11.40;;;5.00;99.90;;;;;;5072834;28;20107;-56
2022/11/26 05:18:01;;;;;;;20.77;11.93;;;5.00;99.90;;;;;;5090350;28;20119;-55
2022/11/26 05:20:27;;;;;;;24.98;12.38;;;5.00;99.90;;;;;;5089159;28;20550;-53
2022/11/26 05:22:52;;;;;;;26.70;12.27;;;5.00;99.90;;;;;;5094848;28;20024;-56
2022/11/26 05:25:18;;;;;;;28.00;12.07;;;5.00;99.90;;;;;;5091539;28;20063;-56
2022/11/26 05:27:43;;;;;;;23.60;11.90;;;5.00;99.90;;;;;;5071481;28;20063;-55
2022/11/26 05:30:09;;;;;;;29.42;12.57;;;5.00;99.90;;;;;;5092064;28;20028;-57
2022/11/26 05:32:35;;;;;;;27.67;12.30;;;4.90;99.90;;;;;;5089028;28;20547;-55
2022/11/26 05:35:00;;;;;;;29.65;12.48;;;4.90;99.90;;;;;;5094783;28;20024;-56
2022/11/26 05:37:26;;;;;;;28.75;13.93;;;4.90;99.90;;;;;;5093716;28;20107;-56
2022/11/26 05:39:51;;;;;;;30.70;13.23;;;4.90;99.90;;;;;;5092457;28;20027;-55
2022/11/26 05:42:17;;;;;;;24.27;11.73;;;4.80;99.90;;;;;;5090947;28;20445;-55
2022/11/26 05:44:43;;;;;;;29.05;12.20;;;4.80;99.90;;;;;;5092562;28;20024;-56
2022/11/26 05:47:08;;;;;;;26.33;12.07;;;4.80;99.90;;;;;;5091398;28;20027;-55
2022/11/26 05:49:34;;;;;;;24.83;11.70;;;4.80;99.90;;;;;;5091554;28;20374;-53
2022/11/26 05:51:59;;;;;;;29.92;12.68;;;4.80;99.90;;;;;;5091858;28;20112;-56
2022/11/26 05:54:25;;;;;;;22.80;12.30;;;4.80;99.90;;;;;;5091522;27;20473;-54
2022/11/26 05:56:50;;;;;;;24.92;13.05;;;4.90;99.90;;;;;;5088797;28;20040;-54
2022/11/26 05:59:16;;;;;;;28.10;13.48;;;4.80;99.90;;;;;;5093800;28;20027;-55
2022/11/26 06:01:41;;;;;;;29.63;13.27;;;4.80;99.90;;;;;;5091327;28;20032;-52
2022/11/26 06:04:07;;;;;;;26.27;12.02;;;4.80;99.90;;;;;;5076050;28;20540;-55
2022/11/26 06:06:32;;;;;;;22.20;12.38;;;4.80;99.90;;;;;;5089782;28;20030;-54
2022/11/26 06:08:58;;;;;;;32.53;11.50;;;4.80;99.90;;;;;;5094785;28;20028;-53
2022/11/26 06:11:23;;;;;;;30.95;14.15;;;4.80;99.90;;;;;;5089298;28;20044;-57
2022/11/26 06:13:49;;;;;;;30.48;11.27;;;4.80;99.90;;;;;;5088607;28;20073;-57
2022/11/26 06:16:14;;;;;;;30.23;13.30;;;4.80;99.90;;;;;;5091907;28;20031;-55
2022/11/26 06:18:40;;;;;;;27.05;12.15;;;4.80;99.90;;;;;;5088234;28;20071;-53
2022/11/26 06:21:06;;;;;;;24.60;11.80;;;4.80;99.90;;;;;;5089366;28;20484;-56
2022/11/26 06:23:33;;;;;;;30.23;12.00;;;4.80;99.90;;;;;;5088712;28;20017;-54
2022/11/26 06:25:58;;;;;;;22.65;11.13;;;4.80;99.90;;;;;;5089180;28;20128;-53
2022/11/26 06:28:24;;;;;;;24.38;11.90;;;4.80;99.90;;;;;;5070903;28;20099;-56
2022/11/26 06:30:50;;;;;;;31.80;12.85;;;4.70;99.90;;;;;;5095675;28;20040;-56
2022/11/26 06:33:15;;;;;;;30.48;12.45;;;4.70;99.90;;;;;;5094045;28;20052;-55
2022/11/26 06:35:41;;;;;;;23.55;12.10;;;4.70;99.90;;;;;;5089872;28;20054;-55
2022/11/26 06:38:07;;;;;;;21.55;11.85;;;4.70;99.90;;;;;;5100676;28;20052;-56
2022/11/26 06:40:32;;;;;;;24.92;12.38;;;4.60;99.90;;;;;;5089151;28;20024;-54
2022/11/26 06:42:58;;;;;;;23.73;10.90;;;4.60;99.90;;;;;;5088862;28;20101;-56
2022/11/26 06:45:24;;;;;;;29.08;10.85;;;4.60;99.90;;;;;;5088767;28;20044;-55
2022/11/26 06:47:50;;;;;;;26.98;11.43;;;4.60;99.90;;;;;;5088709;28;20493;-56
2022/11/26 06:50:17;;;;;;;35.88;14.75;;;4.50;99.90;;;;;;5088578;28;20028;-56
2022/11/26 06:52:43;;;;;;;26.15;13.20;;;4.60;99.90;;;;;;5091707;28;20024;-56
2022/11/26 06:55:09;;;;;;;34.58;15.05;;;4.60;99.90;;;;;;5088997;28;20427;-55
2022/11/26 06:57:35;;;;;;;32.67;14.90;;;4.60;99.90;;;;;;5088424;28;20020;-53
2022/11/26 07:00:01;;;;;;;31.85;16.02;;;4.60;99.90;;;;;;5089120;28;20077;-56
2022/11/26 07:02:26;;;;;;;32.90;17.17;;;4.60;99.90;;;;;;5088631;28;20089;-53
2022/11/26 07:04:52;;;;;;;33.60;14.60;;;4.60;99.90;;;;;;5093410;28;20040;-56
2022/11/26 07:07:18;;;;;;;27.27;13.75;;;4.60;99.90;;;;;;5093004;28;20171;-57
2022/11/26 07:09:43;;;;;;;30.45;13.63;;;4.60;99.90;;;;;;5088357;28;20040;-53
2022/11/26 07:12:10;;;;;;;33.85;13.30;;;4.60;99.90;;;;;;5088385;28;20389;-55
2022/11/26 07:14:35;;;;;;;35.55;12.30;;;4.60;99.90;;;;;;5101486;28;20103;-53
2022/11/26 07:17:01;;;;;;;28.30;12.70;;;4.70;99.90;;;;;;5100921;28;20115;-56
2022/11/26 07:19:26;;;;;;;26.13;11.40;;;4.70;99.90;;;;;;5099893;28;20500;-56
2022/11/26 07:21:53;;;;;;;30.55;13.30;;;4.70;99.90;;;;;;5092373;28;20039;-53
2022/11/26 07:24:18;;;;;;;29.20;12.35;;;4.80;99.90;;;;;;5105840;27;20020;-54
2022/11/26 07:26:43;;;;;;;27.00;12.43;;;4.80;99.90;;;;;;5092359;28;20026;-54
2022/11/26 07:29:09;;;;;;;26.27;11.73;;;4.80;99.90;;;;;;5105543;28;20024;-53
2022/11/26 07:31:35;;;;;;;28.35;13.02;;;4.90;99.90;;;;;;5073850;28;20028;-55
2022/11/26 07:34:01;;;;;;;31.00;12.40;;;4.90;99.90;;;;;;5093768;28;20042;-55
2022/11/26 07:36:28;;;;;;;37.42;12.77;;;4.90;99.90;;;;;;5107570;28;20054;-56
2022/11/26 07:38:58;;;;;;;28.23;12.85;;;4.90;99.90;;;;;;5103708;28;20031;-57
2022/11/26 07:41:25;;;;;;;32.08;13.27;;;4.90;99.90;;;;;;5105691;27;20488;-54
2022/11/26 07:43:51;;;;;;;31.30;12.77;;;4.90;99.90;;;;;;5097386;28;20039;-54
2022/11/26 07:46:20;;;;;;;30.83;13.75;;;4.90;99.90;;;;;;5073518;28;20028;-55
2022/11/26 07:48:46;;;;;;;34.37;14.30;;;4.90;99.90;;;;;;5091299;28;20093;-55
2022/11/26 07:51:21;;;;;;;33.05;13.10;;;5.00;99.90;;;;;;5104940;28;20092;-55
2022/11/26 07:53:47;;;;;;;28.35;12.65;;;5.00;99.90;;;;;;5072906;28;20024;-54
2022/11/26 07:56:13;;;;;;;29.67;12.80;;;5.00;99.90;;;;;;5097217;28;20115;-55
2022/11/26 07:58:39;;;;;;;28.45;13.05;;;5.10;99.90;;;;;;5091353;27;20106;-55
2022/11/26 08:01:13;;;;;;;33.17;14.10;;;5.00;99.90;;;;;;5090827;27;20473;-56
2022/11/26 08:03:40;;;;;;;28.85;13.25;;;5.10;99.90;;;;;;5082910;28;20081;-55
2022/11/26 08:06:08;;;;;;;27.23;12.68;;;5.10;99.90;;;;;;5091362;28;20051;-53
2022/11/26 08:08:34;;;;;;;35.47;14.38;;;5.10;99.90;;;;;;5074177;28;20081;-57
2022/11/26 08:11:01;;;;;;;36.80;15.98;;;5.20;99.90;;;;;;5099539;27;20032;-55
2022/11/26 08:13:26;;;;;;;33.40;15.02;;;5.20;99.90;;;;;;5097221;28;20043;-56
2022/11/26 08:15:51;;;;;;;36.15;17.27;;;5.20;99.90;;;;;;5087088;28;20066;-54
2022/11/26 08:18:17;;;;;;;32.00;14.13;;;5.20;99.90;;;;;;5094426;28;20046;-56
2022/11/26 08:20:42;;;;;;;37.13;14.45;;;5.30;99.90;;;;;;5097290;27;20089;-54
2022/11/26 08:23:08;;;;;;;35.28;14.80;;;5.40;99.90;;;;;;5097131;28;20028;-51
2022/11/26 08:25:34;;;;;;;38.75;15.40;;;5.50;99.90;;;;;;5090589;28;20028;-53
2022/11/26 08:28:00;;;;;;;33.42;15.45;;;5.50;99.90;;;;;;5094884;27;20102;-56
2022/11/26 08:30:25;;;;;;;36.45;15.57;;;5.60;99.90;;;;;;5074679;28;20035;-54
2022/11/26 08:32:51;;;;;;;32.08;15.25;;;5.60;99.90;;;;;;5094284;27;20139;-55
2022/11/26 08:35:16;;;;;;;36.88;16.35;;;5.70;99.90;;;;;;5096399;28;20542;-55
2022/11/26 08:37:42;;;;;;;29.10;14.75;;;5.80;99.90;;;;;;5099925;28;20533;-55
2022/11/26 08:40:09;;;;;;;35.90;17.17;;;5.80;99.90;;;;;;5093631;28;20016;-56
2022/11/26 08:42:34;;;;;;;35.63;15.98;;;5.90;99.90;;;;;;5085375;28;20017;-55
2022/11/26 08:45:00;;;;;;;37.25;16.40;;;5.90;99.90;;;;;;5091029;28;20068;-56
2022/11/26 08:47:26;;;;;;;30.75;16.30;;;6.00;99.90;;;;;;5104750;28;20027;-55
2022/11/26 08:49:52;;;;;;;30.65;15.73;;;6.00;99.90;;;;;;5113622;28;20031;-56
2022/11/26 08:52:17;;;;;;;35.10;15.82;;;6.10;99.90;;;;;;5105546;28;20106;-55
2022/11/26 08:54:43;;;;;;;28.33;14.63;;;6.10;99.90;;;;;;5100721;28;20028;-55
2022/11/26 08:57:08;;;;;;;37.55;14.88;;;6.20;99.90;;;;;;5106957;28;20535;-56
2022/11/26 08:59:34;;;;;;;39.42;15.18;;;6.20;99.90;;;;;;5105910;28;20024;-54
2022/11/26 09:01:59;;;;;;;33.25;16.00;;;6.30;99.90;;;;;;5095875;28;20031;-53
2022/11/26 09:04:25;;;;;;;30.98;14.50;;;6.30;99.90;;;;;;5108856;28;20107;-54
2022/11/26 09:06:50;;;;;;;29.55;14.35;;;6.30;99.90;;;;;;5111785;28;20463;-54
2022/11/26 09:09:16;;;;;;;32.13;14.13;;;6.30;99.90;;;;;;5102720;28;20465;-56
2022/11/26 09:11:43;;;;;;;29.13;15.25;;;6.30;99.90;;;;;;5100039;28;20027;-52
2022/11/26 09:14:11;;;;;;;38.90;15.32;;;6.30;99.90;;;;;;5100297;28;20091;-51
2022/11/26 09:16:37;;;;;;;30.50;14.15;;;6.40;99.90;;;;;;5105574;28;20373;-51
2022/11/26 09:19:04;;;;;;;31.52;14.95;;;6.40;99.90;;;;;;5106713;28;20015;-52
2022/11/26 09:21:31;;;;;;;27.92;13.35;;;6.40;99.90;;;;;;5108057;28;20384;-54
2022/11/26 09:23:56;;;;;;;28.98;13.98;;;6.40;99.90;;;;;;5096104;28;20089;-55
2022/11/26 09:26:23;;;;;;;30.10;13.88;;;6.40;99.90;;;;;;5109527;28;20484;-54
2022/11/26 09:28:48;;;;;;;23.23;13.27;;;6.50;99.90;;;;;;5092767;28;20077;-55
2022/11/26 09:31:14;;;;;;;26.13;13.70;;;6.50;99.90;;;;;;5089767;28;20031;-56
2022/11/26 09:33:40;;;;;;;29.48;14.32;;;6.60;99.90;;;;;;5071064;28;20171;-55
2022/11/26 09:36:08;;;;;;;31.90;13.18;;;6.60;99.90;;;;;;5090540;28;20544;-52
2022/11/26 09:38:34;;;;;;;28.00;11.70;;;6.60;99.90;;;;;;5091761;28;20102;-57
2022/11/26 09:41:23;;;;;;;30.98;12.75;;;6.70;99.90;;;;;;5091744;28;20089;-55
2022/11/26 09:44:26;;;;;;;30.08;12.60;;;6.70;99.90;;;;;;5088986;28;20031;-56
2022/11/26 09:47:04;;;;;;;24.15;11.20;;;6.80;99.90;;;;;;5089195;28;20016;-56
2022/11/26 09:49:35;;;;;;;31.17;11.27;;;6.80;99.90;;;;;;5089023;28;20537;-54
2022/11/26 09:52:03;;;;;;;35.42;13.10;;;6.90;99.90;;;;;;5088975;28;20031;-56
2022/11/26 09:54:29;;;;;;;29.15;12.38;;;6.90;99.90;;;;;;5070453;28;20066;-56
2022/11/26 09:57:32;;;;;;;29.65;11.63;;;6.90;99.90;;;;;;5088749;28;20339;-55
2022/11/26 09:59:58;;;;;;;32.97;11.30;;;7.00;99.90;;;;;;5088999;28;20538;-56
2022/11/26 10:02:24;;;;;;;20.60;11.13;;;7.00;99.90;;;;;;5091740;27;20028;-56
2022/11/26 10:04:50;;;;;;;23.52;10.65;;;7.10;99.90;;;;;;5095551;28;20491;-55
2022/11/26 10:07:48;;;;;;;26.20;10.27;;;7.10;99.90;;;;;;5073412;28;20119;-55
2022/11/26 10:10:22;;;;;;;29.05;10.25;;;7.20;99.90;;;;;;5099263;28;20072;-57
2022/11/26 10:13:11;;;;;;;31.20;10.35;;;7.20;99.90;;;;;;5109743;28;20020;-55
2022/11/26 10:15:43;;;;;;;27.95;10.55;;;7.30;99.90;;;;;;5099816;28;20039;-55
2022/11/26 10:18:30;;;;;;;25.73;10.98;;;7.30;99.90;;;;;;5110485;28;20024;-56
2022/11/26 10:21:28;;;;;;;22.67;9.70;;;7.40;99.90;;;;;;5098557;28;20024;-54
2022/11/26 10:23:56;;;;;;;24.55;10.50;;;7.50;99.90;;;;;;5098896;28;20028;-56
2022/11/26 10:26:22;;;;;;;21.13;9.20;;;7.50;99.90;;;;;;5103077;28;20027;-57
2022/11/26 10:28:51;;;;;;;20.85;9.18;;;7.50;99.90;;;;;;5108362;28;20046;-55
2022/11/26 10:31:26;;;;;;;29.10;12.63;;;7.50;99.90;;;;;;5112182;28;20547;-54
2022/11/26 10:34:07;;;;;;;29.17;10.88;;;7.60;99.90;;;;;;5099938;28;20130;-56
2022/11/26 10:36:38;;;;;;;27.33;10.48;;;7.60;99.90;;;;;;5093921;28;20037;-55
2022/11/26 10:39:06;;;;;;;29.38;11.13;;;7.60;99.90;;;;;;5097555;28;20020;-56
2022/11/26 10:41:34;;;;;;;27.15;11.20;;;7.60;99.90;;;;;;5084418;28;20027;-56
2022/11/26 10:44:41;;;;;;;32.83;11.63;;;7.70;99.90;;;;;;5096108;28;20020;-56
2022/11/26 10:47:24;;;;;;;20.30;10.30;;;7.70;99.90;;;;;;5074673;28;20512;-55
2022/11/26 10:49:52;;;;;;;30.80;11.25;;;7.80;99.90;;;;;;5094803;28;20027;-55
2022/11/26 10:52:29;;;;;;;28.75;10.75;;;7.90;99.90;;;;;;5096799;28;20024;-57
2022/11/26 10:55:24;;;;;;;31.45;11.30;;;8.00;99.90;;;;;;5110398;28;20033;-56
2022/11/26 10:58:01;;;;;;;25.88;9.77;;;8.10;99.90;;;;;;5111102;28;20098;-54
2022/11/26 11:00:34;;;;;;;24.70;9.77;;;8.10;99.90;;;;;;5112108;28;20469;-56
2022/11/26 11:03:02;;;;;;;26.38;10.55;;;8.30;99.90;;;;;;5113404;28;20366;-56
2022/11/26 11:05:28;;;;;;;26.60;10.77;;;8.30;99.90;;;;;;5112668;28;20044;-57
2022/11/26 11:07:53;;;;;;;26.00;10.13;;;8.40;99.90;;;;;;5111699;28;20023;-56
2022/11/26 11:10:23;;;;;;;21.88;9.38;;;8.50;99.90;;;;;;5106904;28;20366;-56
2022/11/26 11:12:49;;;;;;;28.23;9.70;;;8.70;99.90;;;;;;5097334;28;20090;-56
2022/11/26 11:15:27;;;;;;;25.25;9.68;;;9.00;99.90;;;;;;5095351;28;20258;-56
2022/11/26 11:17:59;;;;;;;21.55;9.05;;;9.40;99.90;;;;;;5088241;28;20103;-56
2022/11/26 11:20:36;;;;;;;26.08;8.85;;;10.20;99.90;;;;;;5114268;28;20047;-56
2022/11/26 11:23:04;;;;;;;21.83;7.80;;;10.70;99.90;;;;;;5095450;28;20442;-56
2022/11/26 11:25:32;;;;;;;19.52;8.23;;;10.90;99.90;;;;;;5095675;28;20026;-55
2022/11/26 11:28:12;;;;;;;18.00;7.03;;;11.60;99.90;;;;;;5120253;27;20070;-54
2022/11/26 11:30:39;;;;;;;19.98;7.35;;;12.30;99.90;;;;;;5102853;28;20038;-57
2022/11/26 11:33:20;;;;;;;23.75;7.22;;;12.90;99.90;;;;;;5099937;28;20048;-56
2022/11/26 11:36:00;;;;;;;20.80;8.45;;;13.40;99.90;;;;;;5097462;28;20488;-57
2022/11/26 11:38:29;;;;;;;21.00;7.88;;;13.90;99.90;;;;;;5110756;27;20020;-57
2022/11/26 11:40:54;;;;;;;20.67;7.53;;;14.00;98.70;;;;;;5110011;28;20085;-57
2022/11/26 11:43:22;;;;;;;18.15;6.30;;;14.40;98.40;;;;;;5114545;28;20023;-57
2022/11/26 11:45:59;;;;;;;14.18;7.03;;;14.90;97.20;;;;;;5112617;28;20031;-57
2022/11/26 11:49:18;;;;;;;18.05;5.65;;;15.70;95.60;;;;;;5109535;28;20072;-57
2022/11/26 11:52:12;;;;;;;15.57;5.85;;;16.80;93.80;;;;;;5050856;28;20029;-58
2022/11/26 11:54:58;;;;;;;18.95;5.90;;;17.10;90.80;;;;;;5094258;28;20138;-58
2022/11/26 11:57:42;;;;;;;13.93;5.63;;;17.30;89.80;;;;;;5107977;28;20026;-57
2022/11/26 12:00:19;;;;;;;18.60;6.00;;;17.60;86.80;;;;;;5104600;27;20051;-57
2022/11/26 12:03:16;;;;;;;19.30;5.88;;;17.50;85.10;;;;;;5112342;28;20076;-58
2022/11/26 12:05:58;;;;;;;19.35;6.60;;;16.90;85.00;;;;;;5101348;28;20047;-58
2022/11/26 12:08:50;;;;;;;15.75;6.15;;;16.40;87.40;;;;;;5106163;28;20541;-58
2022/11/26 12:11:46;;;;;;;14.05;5.10;;;16.20;88.80;;;;;;5111445;28;20147;-58
2022/11/26 12:14:18;;;;;;;14.57;4.93;;;16.10;89.00;;;;;;5109324;28;21216;-57
2022/11/26 12:16:48;;;;;;;15.63;5.07;;;16.30;89.10;;;;;;5110119;28;20031;-58
2022/11/26 12:19:16;;;;;;;12.27;4.43;;;16.40;88.50;;;;;;5089534;28;20082;-57
2022/11/26 12:22:01;;;;;;;13.65;5.00;;;16.70;87.50;;;;;;5111677;28;20034;-57
2022/11/26 12:25:03;;;;;;;14.48;5.18;;;16.80;87.90;;;;;;5108868;28;20121;-57
2022/11/26 12:27:40;;;;;;;15.05;4.95;;;17.50;86.50;;;;;;5107815;28;20071;-57
2022/11/26 12:30:14;;;;;;;14.65;4.70;;;17.90;82.90;;;;;;5109420;28;20024;-57
2022/11/26 12:32:48;;;;;;;13.48;5.38;;;18.40;81.10;;;;;;5107785;28;20046;-58
2022/11/26 12:35:24;;;;;;;13.55;4.47;;;18.30;78.80;;;;;;5108290;28;20050;-58
2022/11/26 12:37:52;;;;;;;10.93;4.30;;;18.10;78.60;;;;;;5110099;28;20507;-57
2022/11/26 12:40:33;;;;;;;10.15;3.60;;;18.50;80.00;;;;;;5089710;28;20111;-57
2022/11/26 12:43:32;;;;;;;16.90;4.70;;;18.70;78.40;;;;;;5106816;28;20023;-58
2022/11/26 12:46:02;;;;;;;16.35;4.97;;;18.60;76.20;;;;;;5108191;28;20016;-58
2022/11/26 12:48:33;;;;;;;14.60;4.78;;;18.00;76.40;;;;;;5109977;28;20075;-57
2022/11/26 12:51:18;;;;;;;11.65;4.53;;;17.30;78.00;;;;;;5107729;28;20027;-57
2022/11/26 12:53:54;;;;;;;13.38;4.07;;;16.70;79.90;;;;;;5107862;28;20024;-58
2022/11/26 12:56:51;;;;;;;13.52;4.80;;;16.00;82.00;;;;;;5110691;28;20040;-57